Terminal Aerodrome Forecast
Issued by NWS

Home | Current Version | Previous Version | Text Only | Print | Product List | Glossary On
Versions: 1 2 3 4 5 6 7 8 9 10 11 12 13 14 15 16 17 18 19 20 21 22 23 24 25 26 27
000
FTUS41 KBGM 250300 AAA
TAFELM
TAF AMD
KELM 250349Z 2504/2524 29010KT 6SM -FZDZ BR OVC035
      TEMPO 2504/2507 -SHSN OVC025
     FM250700 28010KT P6SM -SN OVC035
     FM251500 33010KT P6SM BKN050=

USA.gov is the U.S. government's official web portal to all federal, state and local government web resources and services.